Time;durP1;ratioP1;P1;durP2;ratioP2;P2;SDS_P1;SDS_P2;PMS_P1;PMS_P2;Temp;Humidity;BMP_temperature;BMP_pressure;BME280_temperature;BME280_humidity;BME280_pressure;Samples;Min_cycle;Max_cycle;Signal;HPM_P1;HPM_P2
2021/06/06 00:02:01;;;;;;;0.40;0.20;;;15.80;99.90;;;;;;5131355;27;20378;-73
2021/06/06 00:04:27;;;;;;;0.40;0.20;;;15.70;99.90;;;;;;5130995;28;20489;-81
2021/06/06 00:06:53;;;;;;;0.40;0.30;;;15.60;99.90;;;;;;5131079;27;20777;-75
2021/06/06 00:09:20;;;;;;;0.40;0.20;;;15.80;99.90;;;;;;5130966;28;20389;-74
2021/06/06 00:11:49;;;;;;;0.40;0.30;;;15.70;99.90;;;;;;5130625;28;20478;-74
2021/06/06 00:14:22;;;;;;;0.40;0.30;;;15.70;99.90;;;;;;5131624;28;20379;-74
2021/06/06 00:16:52;;;;;;;0.40;0.20;;;15.70;99.90;;;;;;5130780;28;20441;-74
2021/06/06 00:19:19;;;;;;;0.40;0.20;;;15.70;99.90;;;;;;5131444;28;20490;-74
2021/06/06 00:21:45;;;;;;;0.40;0.30;;;15.60;99.90;;;;;;5130649;28;20414;-74
2021/06/06 00:24:19;;;;;;;0.40;0.30;;;15.60;99.90;;;;;;5112890;28;20880;-74
2021/06/06 00:26:45;;;;;;;0.40;0.30;;;15.50;99.90;;;;;;5130425;28;20375;-74
2021/06/06 00:29:10;;;;;;;0.40;0.30;;;15.50;99.90;;;;;;5112980;28;20394;-74
2021/06/06 00:31:37;;;;;;;0.40;0.20;;;15.60;99.90;;;;;;5130668;28;20366;-74
2021/06/06 00:34:04;;;;;;;0.40;0.30;;;15.50;99.90;;;;;;5131503;28;20815;-74
2021/06/06 00:36:30;;;;;;;0.40;0.30;;;15.50;99.90;;;;;;5130548;28;20472;-82
2021/06/06 00:38:56;;;;;;;0.40;0.30;;;15.50;99.90;;;;;;5130854;28;20394;-74
2021/06/06 00:41:24;;;;;;;0.40;0.20;;;15.60;99.90;;;;;;5112076;28;20382;-75
2021/06/06 00:43:50;;;;;;;0.40;0.30;;;15.70;99.90;;;;;;5130902;28;20744;-73
2021/06/06 00:46:18;;;;;;;0.40;0.20;;;15.60;99.90;;;;;;5112299;28;20843;-74
2021/06/06 00:48:44;;;;;;;0.40;0.20;;;15.60;99.90;;;;;;5130537;28;20397;-75
2021/06/06 00:51:23;;;;;;;0.40;0.30;;;15.50;99.90;;;;;;5130977;28;20847;-75
2021/06/06 00:54:03;;;;;;;0.40;0.20;;;15.50;99.90;;;;;;5130142;28;20383;-75
2021/06/06 00:56:29;;;;;;;0.40;0.30;;;15.60;99.90;;;;;;5130711;28;20445;-83
2021/06/06 00:58:58;;;;;;;0.40;0.30;;;15.50;99.90;;;;;;5130316;28;20383;-75
2021/06/06 01:01:25;;;;;;;0.40;0.30;;;15.40;99.90;;;;;;5130521;28;20475;-74
2021/06/06 01:03:52;;;;;;;0.40;0.30;;;15.50;99.90;;;;;;5130235;28;20382;-74
2021/06/06 01:06:46;;;;;;;0.40;0.30;;;15.50;99.90;;;;;;5130715;28;20863;-74
2021/06/06 01:09:13;;;;;;;0.40;0.20;;;15.30;99.90;;;;;;5118789;28;20383;-74
2021/06/06 01:12:02;;;;;;;0.40;0.20;;;15.50;99.90;;;;;;5130342;28;20378;-75
2021/06/06 01:14:49;;;;;;;0.40;0.30;;;15.50;99.90;;;;;;5130676;28;20866;-75
2021/06/06 01:17:22;;;;;;;0.40;0.30;;;15.40;99.90;;;;;;5130703;28;20389;-75
2021/06/06 01:20:07;;;;;;;0.40;0.20;;;15.40;99.90;;;;;;5133026;27;20366;-75
2021/06/06 01:22:52;;;;;;;0.40;0.20;;;15.30;99.90;;;;;;5133752;27;20712;-79
2021/06/06 01:25:44;;;;;;;0.40;0.30;;;15.30;99.90;;;;;;5115785;27;20736;-75
2021/06/06 01:28:23;;;;;;;0.40;0.20;;;15.40;99.90;;;;;;5133357;27;20418;-75
2021/06/06 01:30:56;;;;;;;0.40;0.20;;;15.40;99.90;;;;;;5133230;27;20398;-75
2021/06/06 01:33:31;;;;;;;0.40;0.20;;;15.50;99.90;;;;;;5134519;27;20375;-75
2021/06/06 01:36:09;;;;;;;0.40;0.20;;;15.40;99.90;;;;;;5133566;27;20859;-76
2021/06/06 01:38:55;;;;;;;0.40;0.30;;;15.40;99.90;;;;;;5133438;27;20458;-76
2021/06/06 01:41:25;;;;;;;0.40;0.30;;;15.40;99.90;;;;;;5134212;27;20367;-75
2021/06/06 01:43:55;;;;;;;0.40;0.30;;;15.50;99.90;;;;;;5133473;27;20371;-75
2021/06/06 01:46:38;;;;;;;0.40;0.20;;;15.50;99.90;;;;;;5133817;27;20876;-75
2021/06/06 01:49:06;;;;;;;0.40;0.20;;;15.50;99.90;;;;;;5133883;27;20371;-75
2021/06/06 01:51:36;;;;;;;0.40;0.30;;;15.50;99.90;;;;;;5133492;27;20920;-83
2021/06/06 01:54:03;;;;;;;0.40;0.20;;;15.40;99.90;;;;;;5133887;27;20435;-75
2021/06/06 01:56:32;;;;;;;0.40;0.30;;;15.40;99.90;;;;;;5133966;27;20411;-75
2021/06/06 01:59:05;;;;;;;0.40;0.20;;;15.40;99.90;;;;;;5133564;27;20471;-75
2021/06/06 02:01:32;;;;;;;0.40;0.30;;;15.40;99.90;;;;;;5133582;27;20473;-82
2021/06/06 02:03:59;;;;;;;0.40;0.30;;;15.50;99.90;;;;;;5133829;27;20374;-75
2021/06/06 02:06:34;;;;;;;0.40;0.20;;;15.50;99.90;;;;;;5133402;27;20383;-75
2021/06/06 02:09:03;;;;;;;0.40;0.30;;;15.50;99.90;;;;;;5133620;27;20375;-75
2021/06/06 02:11:43;;;;;;;0.40;0.30;;;15.40;99.90;;;;;;5133347;27;20473;-75
2021/06/06 02:14:14;;;;;;;0.40;0.20;;;15.50;99.90;;;;;;5133604;27;20869;-75
2021/06/06 02:16:45;;;;;;;0.40;0.30;;;15.40;99.90;;;;;;5132976;27;20700;-75
2021/06/06 02:19:11;;;;;;;0.40;0.20;;;15.40;99.90;;;;;;5133455;27;20375;-75
2021/06/06 02:21:37;;;;;;;0.40;0.30;;;15.40;99.90;;;;;;5132978;27;20378;-76
2021/06/06 02:24:04;;;;;;;0.40;0.20;;;15.40;99.90;;;;;;5133508;27;20493;-75
2021/06/06 02:26:56;;;;;;;0.40;0.20;;;15.30;99.90;;;;;;5132586;27;20395;-75
2021/06/06 02:29:43;;;;;;;0.40;0.20;;;15.40;99.90;;;;;;5103886;27;20804;-75
2021/06/06 02:32:19;;;;;;;0.40;0.20;;;15.30;99.90;;;;;;5114908;27;20720;-75
2021/06/06 02:34:54;;;;;;;0.40;0.20;;;15.30;99.90;;;;;;5132802;27;20370;-75
2021/06/06 02:37:30;;;;;;;0.40;0.20;;;15.20;99.90;;;;;;5133105;27;20367;-75
2021/06/06 02:40:01;;;;;;;0.40;0.20;;;15.20;99.90;;;;;;5132545;27;20386;-75
2021/06/06 02:42:35;;;;;;;0.40;0.30;;;15.30;99.90;;;;;;5132982;27;20397;-75
2021/06/06 02:45:33;;;;;;;0.40;0.20;;;15.20;99.90;;;;;;5114626;27;20387;-76
2021/06/06 02:48:24;;;;;;;0.40;0.30;;;15.20;99.90;;;;;;5110410;27;20386;-75
2021/06/06 02:50:51;;;;;;;0.40;0.20;;;15.20;99.90;;;;;;5132250;27;20402;-75
2021/06/06 02:53:22;;;;;;;0.40;0.30;;;15.10;99.90;;;;;;5131956;27;20387;-75
2021/06/06 02:55:51;;;;;;;0.40;0.30;;;15.00;99.90;;;;;;5131860;27;20410;-75
2021/06/06 02:58:25;;;;;;;0.40;0.20;;;15.20;99.90;;;;;;5132532;27;20373;-77
2021/06/06 03:01:01;;;;;;;0.40;0.30;;;15.20;99.90;;;;;;5131828;27;20470;-76
2021/06/06 03:03:33;;;;;;;0.40;0.20;;;15.20;99.90;;;;;;5131915;27;20708;-76
2021/06/06 03:06:02;;;;;;;0.40;0.20;;;15.20;99.90;;;;;;5132149;27;20379;-75
2021/06/06 03:08:28;;;;;;;0.40;0.30;;;15.20;99.90;;;;;;5132649;27;20451;-75
2021/06/06 03:10:55;;;;;;;0.40;0.20;;;15.30;99.90;;;;;;5131571;27;20432;-76
2021/06/06 03:13:38;;;;;;;0.40;0.20;;;15.20;99.90;;;;;;5131969;27;20387;-76
2021/06/06 03:16:12;;;;;;;0.40;0.30;;;15.20;99.90;;;;;;5132318;27;20502;-76
2021/06/06 03:18:40;;;;;;;0.40;0.20;;;15.10;99.90;;;;;;5112564;27;20379;-82
2021/06/06 03:21:21;;;;;;;0.40;0.20;;;15.00;99.90;;;;;;5132195;27;20822;-75
2021/06/06 03:24:02;;;;;;;0.40;0.40;;;15.20;99.90;;;;;;5131502;27;20716;-76
2021/06/06 03:26:28;;;;;;;0.40;0.20;;;15.10;99.90;;;;;;5132479;27;20866;-75
2021/06/06 03:28:54;;;;;;;0.40;0.20;;;15.00;99.90;;;;;;5131682;27;20371;-76
2021/06/06 03:31:28;;;;;;;0.40;0.20;;;15.00;99.90;;;;;;5131846;27;20382;-75
2021/06/06 03:33:59;;;;;;;0.40;0.30;;;15.10;99.90;;;;;;5131131;27;20915;-75
2021/06/06 03:36:34;;;;;;;0.40;0.20;;;15.20;99.90;;;;;;5132154;27;20459;-75
2021/06/06 03:39:02;;;;;;;0.40;0.20;;;15.10;99.90;;;;;;5131458;27;20399;-76
2021/06/06 03:41:29;;;;;;;0.40;0.20;;;15.20;99.90;;;;;;5131184;27;20393;-76
2021/06/06 03:43:55;;;;;;;0.40;0.30;;;15.10;99.90;;;;;;5130865;27;20458;-76
2021/06/06 03:46:23;;;;;;;0.40;0.20;;;15.10;99.90;;;;;;5131977;27;20938;-75
2021/06/06 03:48:49;;;;;;;0.40;0.30;;;15.10;99.90;;;;;;5131464;27;20409;-76
2021/06/06 03:51:16;;;;;;;0.40;0.30;;;15.00;99.90;;;;;;5131066;27;20414;-76
2021/06/06 03:53:42;;;;;;;0.40;0.30;;;15.00;99.90;;;;;;5130774;27;20430;-81
2021/06/06 03:56:10;;;;;;;0.40;0.20;;;15.10;99.90;;;;;;5131847;27;20590;-76
2021/06/06 03:58:36;;;;;;;0.40;0.20;;;15.10;99.90;;;;;;5131838;27;20398;-76
2021/06/06 04:01:03;;;;;;;0.40;0.30;;;15.00;99.90;;;;;;5131604;27;20461;-75
2021/06/06 04:03:29;;;;;;;0.40;0.25;;;15.20;99.90;;;;;;5132074;27;20739;-76
2021/06/06 04:05:54;;;;;;;0.40;0.30;;;15.20;99.90;;;;;;5131725;28;20378;-76
2021/06/06 04:08:21;;;;;;;0.40;0.20;;;15.20;99.90;;;;;;5131982;28;20415;-76
2021/06/06 04:10:47;;;;;;;0.40;0.20;;;15.20;99.90;;;;;;5113008;28;20482;-76
2021/06/06 04:13:13;;;;;;;0.40;0.30;;;15.20;99.90;;;;;;5131910;28;20371;-76
2021/06/06 04:15:39;;;;;;;0.40;0.30;;;15.20;99.90;;;;;;5131575;28;20455;-85
2021/06/06 04:18:20;;;;;;;0.40;0.30;;;15.10;99.90;;;;;;5131958;28;20375;-76
2021/06/06 04:20:48;;;;;;;0.40;0.30;;;15.10;99.90;;;;;;5131376;28;20370;-76
2021/06/06 04:23:15;;;;;;;0.40;0.30;;;15.10;99.90;;;;;;5132112;28;20415;-76
2021/06/06 04:25:41;;;;;;;0.40;0.30;;;15.20;99.90;;;;;;5132174;28;20383;-82
2021/06/06 04:28:07;;;;;;;0.40;0.20;;;15.20;99.90;;;;;;5113335;28;20996;-76
2021/06/06 04:30:34;;;;;;;0.40;0.30;;;15.30;99.90;;;;;;5131618;28;20779;-76
2021/06/06 04:33:03;;;;;;;0.40;0.20;;;15.20;99.90;;;;;;5131221;28;20766;-76
2021/06/06 04:35:29;;;;;;;0.40;0.20;;;15.30;99.90;;;;;;5131820;28;20434;-75
2021/06/06 04:37:55;;;;;;;0.40;0.30;;;15.30;99.90;;;;;;5131754;28;20943;-76
2021/06/06 04:40:20;;;;;;;0.40;0.20;;;15.30;99.90;;;;;;5131961;28;20379;-76
2021/06/06 04:42:46;;;;;;;0.40;0.30;;;15.40;99.90;;;;;;5130453;28;20882;-79
2021/06/06 04:45:14;;;;;;;0.40;0.20;;;15.40;99.90;;;;;;5113465;28;20386;-76
2021/06/06 04:47:40;;;;;;;0.40;0.30;;;15.30;99.90;;;;;;5131038;28;20920;-76
2021/06/06 04:50:08;;;;;;;0.40;0.30;;;15.20;99.90;;;;;;5112579;28;20383;-76
2021/06/06 04:52:36;;;;;;;0.40;0.20;;;15.20;99.90;;;;;;5130852;27;20395;-77
2021/06/06 04:55:19;;;;;;;0.40;0.30;;;15.40;99.90;;;;;;5133875;27;20890;-76
2021/06/06 04:57:45;;;;;;;0.40;0.30;;;15.40;99.90;;;;;;5135113;27;20379;-84
2021/06/06 05:00:19;;;;;;;0.40;0.30;;;15.40;99.90;;;;;;5135431;27;20373;-76
2021/06/06 05:02:45;;;;;;;0.40;0.30;;;15.50;99.90;;;;;;5134834;27;20378;-85
2021/06/06 05:05:11;;;;;;;0.40;0.23;;;15.40;99.90;;;;;;5116846;27;20389;-76
2021/06/06 05:07:37;;;;;;;0.40;0.30;;;15.40;99.90;;;;;;5134765;27;20405;-77
2021/06/06 05:10:06;;;;;;;0.40;0.30;;;15.40;99.90;;;;;;5134590;27;20370;-77
2021/06/06 05:12:33;;;;;;;0.40;0.20;;;15.40;99.90;;;;;;5135240;27;20378;-77
2021/06/06 05:14:59;;;;;;;0.40;0.30;;;15.40;99.90;;;;;;5134335;27;20410;-77
2021/06/06 05:17:24;;;;;;;0.40;0.30;;;15.30;99.90;;;;;;5135135;27;20422;-77
2021/06/06 05:19:50;;;;;;;0.40;0.20;;;15.30;99.90;;;;;;5134348;27;20454;-77
2021/06/06 05:22:16;;;;;;;0.40;0.30;;;15.40;99.90;;;;;;5135077;27;20508;-76
2021/06/06 05:24:41;;;;;;;0.40;0.20;;;15.30;99.90;;;;;;5134603;27;20445;-77
2021/06/06 05:27:07;;;;;;;0.40;0.20;;;15.40;99.90;;;;;;5134265;27;20465;-77
2021/06/06 05:29:33;;;;;;;0.40;0.20;;;15.40;99.90;;;;;;5134687;27;20382;-77
2021/06/06 05:31:59;;;;;;;0.40;0.20;;;15.40;99.90;;;;;;5133817;27;20466;-76
2021/06/06 05:34:24;;;;;;;0.40;0.30;;;15.20;99.90;;;;;;5134421;27;20779;-77
2021/06/06 05:36:50;;;;;;;0.40;0.20;;;15.00;99.90;;;;;;5133783;27;20893;-78
2021/06/06 05:39:16;;;;;;;0.40;0.30;;;15.00;99.90;;;;;;5133921;27;20367;-79
2021/06/06 05:41:42;;;;;;;0.40;0.30;;;14.90;99.90;;;;;;5134186;27;20416;-78
2021/06/06 05:44:08;;;;;;;0.40;0.30;;;14.90;99.90;;;;;;5133253;27;20394;-76
2021/06/06 05:46:35;;;;;;;0.40;0.20;;;15.10;99.90;;;;;;5133801;27;20949;-77
2021/06/06 05:49:01;;;;;;;0.40;0.20;;;15.10;99.90;;;;;;5133043;27;20374;-76
2021/06/06 05:51:27;;;;;;;0.40;0.30;;;15.10;99.90;;;;;;5134315;27;20410;-78
2021/06/06 05:53:54;;;;;;;0.40;0.30;;;15.00;99.90;;;;;;5133490;27;20459;-78
2021/06/06 05:56:20;;;;;;;0.40;0.20;;;15.00;99.90;;;;;;5134010;27;20524;-81
2021/06/06 05:58:46;;;;;;;0.40;0.30;;;15.00;99.90;;;;;;5133852;27;20374;-81
2021/06/06 06:01:12;;;;;;;0.40;0.20;;;15.10;99.90;;;;;;5133326;27;20375;-79
2021/06/06 06:03:38;;;;;;;0.40;0.20;;;15.20;99.90;;;;;;5134026;27;20456;-84
2021/06/06 06:06:05;;;;;;;0.40;0.20;;;15.20;99.90;;;;;;5131871;27;20390;-83
2021/06/06 06:08:37;;;;;;;0.40;0.20;;;15.20;99.90;;;;;;5115684;27;20886;-82
2021/06/06 06:11:05;;;;;;;0.40;0.30;;;15.30;99.90;;;;;;5132885;27;20366;-79
2021/06/06 06:13:32;;;;;;;0.40;0.30;;;15.30;99.90;;;;;;5134061;27;20423;-81
2021/06/06 06:15:58;;;;;;;0.40;0.20;;;15.20;99.90;;;;;;5132875;27;20399;-81
2021/06/06 06:18:28;;;;;;;0.40;0.20;;;15.20;99.90;;;;;;5133846;27;20379;-82
2021/06/06 06:20:54;;;;;;;0.40;0.25;;;15.10;99.90;;;;;;5132296;27;20463;-80
2021/06/06 06:23:20;;;;;;;0.40;0.30;;;15.20;99.90;;;;;;5114915;27;20728;-82
2021/06/06 06:25:46;;;;;;;0.40;0.30;;;15.20;99.90;;;;;;5132279;27;20386;-81
2021/06/06 06:28:12;;;;;;;0.40;0.20;;;15.20;99.90;;;;;;5131782;27;20379;-81
2021/06/06 06:30:39;;;;;;;0.40;0.30;;;15.20;99.90;;;;;;5132706;27;20907;-81
2021/06/06 06:33:07;;;;;;;0.40;0.30;;;15.30;99.90;;;;;;5113818;27;20436;-82
2021/06/06 06:35:33;;;;;;;0.40;0.20;;;15.30;99.90;;;;;;5132485;27;20442;-77
2021/06/06 06:38:00;;;;;;;0.40;0.30;;;15.20;99.90;;;;;;5132564;27;20378;-78
2021/06/06 06:40:26;;;;;;;0.40;0.25;;;15.10;99.90;;;;;;5132263;27;20453;-78
2021/06/06 06:42:54;;;;;;;0.40;0.25;;;15.20;99.90;;;;;;5131434;27;21062;-82
2021/06/06 06:45:23;;;;;;;0.40;0.20;;;15.30;99.90;;;;;;5132652;27;20390;-77
2021/06/06 06:47:49;;;;;;;0.40;0.30;;;15.40;99.90;;;;;;5131465;27;20545;-83
2021/06/06 06:50:19;;;;;;;0.40;0.20;;;15.40;99.90;;;;;;5110396;27;20917;-76
2021/06/06 06:52:45;;;;;;;0.40;0.30;;;15.40;99.90;;;;;;5113552;27;20882;-78
2021/06/06 06:55:15;;;;;;;0.40;0.30;;;15.60;99.90;;;;;;5130843;27;20438;-77
2021/06/06 06:57:41;;;;;;;0.40;0.30;;;15.50;99.90;;;;;;5132411;27;20396;-79
2021/06/06 07:00:10;;;;;;;0.40;0.20;;;15.50;99.90;;;;;;5130953;27;20375;-78
2021/06/06 07:02:36;;;;;;;0.40;0.30;;;15.50;99.90;;;;;;5132266;27;20426;-75
2021/06/06 07:05:03;;;;;;;0.40;0.20;;;15.50;99.90;;;;;;5131970;27;20386;-77
2021/06/06 07:07:29;;;;;;;0.40;0.30;;;15.60;99.90;;;;;;5114242;27;20406;-77
2021/06/06 07:09:55;;;;;;;0.40;0.30;;;15.50;99.90;;;;;;5131923;27;20367;-78
2021/06/06 07:12:20;;;;;;;0.40;0.30;;;15.50;99.90;;;;;;5132709;27;20406;-78
2021/06/06 07:14:46;;;;;;;0.40;0.30;;;15.50;99.90;;;;;;5131675;27;20375;-78
2021/06/06 07:17:12;;;;;;;0.40;0.30;;;15.50;99.90;;;;;;5128990;27;20385;-79
2021/06/06 07:19:40;;;;;;;0.40;0.30;;;15.50;99.90;;;;;;5131394;27;20731;-78
2021/06/06 07:22:06;;;;;;;0.40;0.30;;;15.50;99.90;;;;;;5126954;27;20375;-78
2021/06/06 07:24:32;;;;;;;0.40;0.20;;;15.50;99.90;;;;;;5132467;27;20732;-78
2021/06/06 07:26:58;;;;;;;0.40;0.20;;;15.50;99.90;;;;;;5132242;27;20520;-78
2021/06/06 07:29:27;;;;;;;0.40;0.30;;;15.60;99.90;;;;;;5132482;27;20466;-81
2021/06/06 07:31:55;;;;;;;0.40;0.20;;;15.60;99.90;;;;;;5113511;27;20379;-83
2021/06/06 07:34:23;;;;;;;0.40;0.20;;;15.60;99.90;;;;;;5132337;27;20393;-81
2021/06/06 07:36:55;;;;;;;0.40;0.20;;;15.60;99.90;;;;;;5132101;27;20490;-79
2021/06/06 07:39:21;;;;;;;0.40;0.20;;;15.50;99.90;;;;;;5131522;27;20458;-79
2021/06/06 07:41:48;;;;;;;0.40;0.30;;;15.60;99.90;;;;;;5131460;27;20426;-79
2021/06/06 07:44:15;;;;;;;0.40;0.30;;;15.70;99.90;;;;;;5131362;27;20455;-79
2021/06/06 07:46:41;;;;;;;0.40;0.30;;;15.70;99.90;;;;;;5131663;27;20514;-79
2021/06/06 07:49:07;;;;;;;0.40;0.30;;;15.80;99.90;;;;;;5128657;27;20923;-79
2021/06/06 07:51:33;;;;;;;0.40;0.20;;;15.80;99.90;;;;;;5130683;27;20374;-78
2021/06/06 07:53:59;;;;;;;0.40;0.20;;;15.80;99.90;;;;;;5130736;27;20398;-78
2021/06/06 07:56:25;;;;;;;0.40;0.20;;;15.80;99.90;;;;;;5131419;27;20402;-77
2021/06/06 07:58:51;;;;;;;0.40;0.20;;;15.60;99.90;;;;;;5131958;27;20386;-77
2021/06/06 08:01:17;;;;;;;0.40;0.30;;;15.70;99.90;;;;;;5130931;27;20390;-78
2021/06/06 08:03:43;;;;;;;0.40;0.30;;;15.70;99.90;;;;;;5131464;27;20371;-78
2021/06/06 08:06:10;;;;;;;0.40;0.30;;;15.90;99.90;;;;;;5130780;27;20379;-78
2021/06/06 08:08:36;;;;;;;0.40;0.20;;;15.80;99.90;;;;;;5131921;28;20378;-78
2021/06/06 08:11:05;;;;;;;0.40;0.20;;;16.00;99.90;;;;;;5131025;28;20459;-79
2021/06/06 08:13:31;;;;;;;0.40;0.30;;;15.90;99.90;;;;;;5131528;28;20383;-78
2021/06/06 08:15:57;;;;;;;0.40;0.20;;;16.00;99.90;;;;;;5131045;28;20402;-80
2021/06/06 08:18:26;;;;;;;0.40;0.30;;;16.00;99.90;;;;;;5132083;28;20379;-77
2021/06/06 08:21:12;;;;;;;0.40;0.20;;;16.00;99.90;;;;;;5131303;28;20379;-78
2021/06/06 08:23:38;;;;;;;0.40;0.30;;;16.00;99.90;;;;;;5131828;28;20394;-76
2021/06/06 08:26:05;;;;;;;0.40;0.30;;;16.00;99.90;;;;;;5130670;28;20378;-78
2021/06/06 08:28:31;;;;;;;0.40;0.30;;;15.90;99.90;;;;;;5134140;27;20387;-80
2021/06/06 08:31:00;;;;;;;0.40;0.20;;;15.90;99.90;;;;;;5116513;27;20389;-82
2021/06/06 08:33:29;;;;;;;0.40;0.30;;;15.90;99.90;;;;;;5135739;27;20370;-78
2021/06/06 08:35:58;;;;;;;0.40;0.20;;;15.90;99.90;;;;;;5135273;27;20489;-81
2021/06/06 08:38:27;;;;;;;0.40;0.20;;;15.90;99.90;;;;;;5135583;27;20390;-78
2021/06/06 08:41:16;;;;;;;0.40;0.30;;;15.90;99.90;;;;;;5135687;27;20466;-78
2021/06/06 08:43:50;;;;;;;0.40;0.20;;;15.90;99.90;;;;;;5135530;27;20382;-78
2021/06/06 08:46:18;;;;;;;0.40;0.20;;;16.00;99.90;;;;;;5134675;27;20378;-78
2021/06/06 08:48:44;;;;;;;0.40;0.30;;;16.00;99.90;;;;;;5135350;27;20428;-78
2021/06/06 08:51:19;;;;;;;0.40;0.20;;;15.90;99.90;;;;;;5134616;27;20375;-77
2021/06/06 08:53:52;;;;;;;0.40;0.20;;;16.00;99.90;;;;;;5135528;27;20413;-77
2021/06/06 08:56:22;;;;;;;0.40;0.20;;;15.90;99.90;;;;;;5134546;27;20456;-78
2021/06/06 08:59:06;;;;;;;0.40;0.20;;;16.00;99.90;;;;;;5135334;27;20423;-78
2021/06/06 09:02:03;;;;;;;0.40;0.20;;;15.90;99.90;;;;;;5131413;27;20386;-78
2021/06/06 09:04:34;;;;;;;0.40;0.30;;;16.00;99.90;;;;;;5124379;27;20386;-79
2021/06/06 09:07:16;;;;;;;0.40;0.30;;;16.00;99.90;;;;;;5121833;27;20397;-78
2021/06/06 09:09:48;;;;;;;0.40;0.20;;;16.00;99.90;;;;;;5120518;27;20390;-79
2021/06/06 09:12:20;;;;;;;0.40;0.30;;;15.90;99.90;;;;;;5117880;27;20374;-79
2021/06/06 09:14:47;;;;;;;0.40;0.20;;;15.90;99.90;;;;;;5121849;27;20383;-78
2021/06/06 09:17:31;;;;;;;0.40;0.20;;;15.90;99.90;;;;;;5119868;27;20391;-79
2021/06/06 09:19:57;;;;;;;0.40;0.30;;;15.90;99.90;;;;;;5120479;27;20370;-79
2021/06/06 09:22:43;;;;;;;0.40;0.30;;;15.80;99.90;;;;;;5118053;27;20375;-79
2021/06/06 09:25:26;;;;;;;0.40;0.20;;;15.70;99.90;;;;;;5120318;27;20455;-79
2021/06/06 09:28:03;;;;;;;0.40;0.20;;;15.70;99.90;;;;;;5120944;27;20458;-78
2021/06/06 09:30:29;;;;;;;0.40;0.30;;;15.70;99.90;;;;;;5102206;27;20391;-78
2021/06/06 09:33:18;;;;;;;0.40;0.30;;;15.70;99.90;;;;;;5119230;27;20436;-79
2021/06/06 09:36:00;;;;;;;0.40;0.20;;;15.70;99.90;;;;;;5120643;27;20410;-79
2021/06/06 09:38:31;;;;;;;0.40;0.30;;;15.60;99.90;;;;;;5120629;27;20465;-78
2021/06/06 09:41:37;;;;;;;0.40;0.20;;;15.70;99.90;;;;;;5120038;27;20390;-79
2021/06/06 09:44:15;;;;;;;0.40;0.20;;;15.80;99.90;;;;;;5022724;28;20819;-78
2021/06/06 09:46:41;;;;;;;0.40;0.20;;;15.40;99.90;;;;;;5025976;28;20562;-79
2021/06/06 09:49:30;;;;;;;0.40;0.30;;;15.50;99.90;;;;;;5077179;27;21199;-78
2021/06/06 09:52:11;;;;;;;0.40;0.30;;;15.70;99.90;;;;;;5121654;27;20477;-79
2021/06/06 09:54:38;;;;;;;0.40;0.20;;;15.60;99.90;;;;;;5120169;27;20441;-78
2021/06/06 09:57:13;;;;;;;0.40;0.20;;;15.50;99.90;;;;;;5102435;27;20493;-79
2021/06/06 09:59:40;;;;;;;0.40;0.30;;;15.60;99.90;;;;;;5120637;27;20436;-78
2021/06/06 10:02:11;;;;;;;0.40;0.20;;;15.60;99.90;;;;;;5119217;27;20926;-78
2021/06/06 10:04:45;;;;;;;0.40;0.20;;;15.70;99.90;;;;;;5101007;27;20403;-78
2021/06/06 10:07:28;;;;;;;0.40;0.20;;;15.80;99.90;;;;;;5100747;27;20470;-78
2021/06/06 10:09:59;;;;;;;0.40;0.30;;;15.70;99.90;;;;;;5101401;27;20395;-78
2021/06/06 10:12:39;;;;;;;0.40;0.30;;;15.90;99.90;;;;;;5117297;27;20910;-80
2021/06/06 10:15:17;;;;;;;0.40;0.30;;;15.90;99.90;;;;;;5119920;27;20397;-78
2021/06/06 10:18:04;;;;;;;0.40;0.22;;;15.90;99.90;;;;;;5120976;27;20382;-79
2021/06/06 10:20:37;;;;;;;0.40;0.30;;;16.00;99.90;;;;;;5120130;27;20383;-78
2021/06/06 10:23:32;;;;;;;0.40;0.30;;;15.90;99.90;;;;;;5118285;27;20411;-78
2021/06/06 10:26:21;;;;;;;0.40;0.30;;;15.90;99.90;;;;;;5120831;27;20452;-77
2021/06/06 10:28:56;;;;;;;0.40;0.30;;;16.00;99.90;;;;;;5121205;27;20939;-77
2021/06/06 10:31:45;;;;;;;0.40;0.20;;;16.00;99.90;;;;;;5100069;27;20398;-78
2021/06/06 10:34:25;;;;;;;0.40;0.30;;;16.00;99.90;;;;;;5118070;27;20382;-77
2021/06/06 10:36:51;;;;;;;0.40;0.30;;;15.90;99.90;;;;;;5103691;27;20420;-77
2021/06/06 10:39:27;;;;;;;0.40;0.20;;;15.80;99.90;;;;;;5120835;27;20402;-77
2021/06/06 10:42:26;;;;;;;0.40;0.20;;;15.70;99.90;;;;;;5120716;27;20488;-78
2021/06/06 10:45:13;;;;;;;0.40;0.20;;;15.80;99.90;;;;;;5100318;27;21014;-79
2021/06/06 10:47:47;;;;;;;0.40;0.20;;;15.80;99.90;;;;;;5119782;27;20390;-80
2021/06/06 10:50:22;;;;;;;0.40;0.20;;;15.80;99.90;;;;;;5119778;27;20375;-81
2021/06/06 10:52:52;;;;;;;0.40;0.30;;;15.70;99.90;;;;;;5098799;27;20398;-79
2021/06/06 10:55:24;;;;;;;0.40;0.20;;;15.80;99.90;;;;;;5118942;27;20422;-79
2021/06/06 10:57:50;;;;;;;0.40;0.30;;;15.80;99.90;;;;;;5119892;27;20386;-79
2021/06/06 11:00:27;;;;;;;0.40;0.30;;;15.60;99.90;;;;;;5118738;27;20456;-77
2021/06/06 11:02:59;;;;;;;0.40;0.20;;;15.60;99.90;;;;;;5117755;27;20458;-80
2021/06/06 11:05:47;;;;;;;0.40;0.30;;;15.50;99.90;;;;;;5118433;27;20401;-78
2021/06/06 11:08:39;;;;;;;0.40;0.30;;;15.60;99.90;;;;;;5118711;27;20474;-81
2021/06/06 11:11:30;;;;;;;0.40;0.30;;;15.60;99.90;;;;;;5108039;27;20961;-79
2021/06/06 11:14:19;;;;;;;0.40;0.20;;;15.70;99.90;;;;;;5114328;27;20386;-80
2021/06/06 11:16:49;;;;;;;0.40;0.30;;;15.60;99.90;;;;;;5096126;27;20836;-77
2021/06/06 11:19:21;;;;;;;0.40;0.30;;;15.70;99.90;;;;;;5098030;27;20505;-79
2021/06/06 11:21:56;;;;;;;0.40;0.30;;;15.80;99.90;;;;;;5114600;27;20995;-78
2021/06/06 11:24:43;;;;;;;0.40;0.30;;;15.80;99.90;;;;;;5113294;27;20452;-78
2021/06/06 11:27:14;;;;;;;0.40;0.30;;;15.80;99.90;;;;;;5115588;27;20783;-79
2021/06/06 11:29:59;;;;;;;0.40;0.30;;;16.60;99.90;;;;;;5116594;27;20493;-79
2021/06/06 11:32:37;;;;;;;0.40;0.20;;;15.60;99.90;;;;;;5096035;27;20527;-78
2021/06/06 11:35:05;;;;;;;0.40;0.20;;;15.90;99.90;;;;;;5117318;27;20382;-79
2021/06/06 11:37:38;;;;;;;0.40;0.20;;;15.80;99.90;;;;;;5115848;27;20386;-78
2021/06/06 11:40:30;;;;;;;0.40;0.30;;;15.80;99.90;;;;;;5098877;27;20414;-77
2021/06/06 11:43:10;;;;;;;0.40;0.30;;;15.90;99.90;;;;;;5085050;27;20403;-77
2021/06/06 11:45:50;;;;;;;0.40;0.28;;;15.80;99.90;;;;;;5117115;27;20402;-77
2021/06/06 11:48:25;;;;;;;0.40;0.30;;;15.70;99.90;;;;;;5115927;27;20744;-76
2021/06/06 11:50:56;;;;;;;0.40;0.30;;;15.80;99.90;;;;;;5115923;27;20403;-77
2021/06/06 11:53:33;;;;;;;0.40;0.20;;;15.70;99.90;;;;;;5095933;28;20734;-77
2021/06/06 11:56:17;;;;;;;0.40;0.20;;;15.70;99.90;;;;;;5116567;27;20418;-76
2021/06/06 11:59:08;;;;;;;0.40;0.20;;;15.70;99.90;;;;;;5116647;27;20387;-77
2021/06/06 12:01:46;;;;;;;0.40;0.20;;;15.70;99.90;;;;;;5104562;27;20437;-79
2021/06/06 12:04:12;;;;;;;0.40;0.20;;;15.70;99.90;;;;;;5113801;27;20729;-78
2021/06/06 12:06:41;;;;;;;0.40;0.23;;;15.70;99.90;;;;;;5117570;27;20386;-78
2021/06/06 12:09:25;;;;;;;0.40;0.20;;;15.70;99.90;;;;;;5117341;27;20463;-79
2021/06/06 12:12:04;;;;;;;0.40;0.20;;;15.80;99.90;;;;;;5118062;27;20416;-78
2021/06/06 12:14:31;;;;;;;0.40;0.30;;;15.90;99.90;;;;;;5096036;28;20417;-78
2021/06/06 12:17:03;;;;;;;0.40;0.30;;;15.90;99.90;;;;;;5115673;27;20438;-77
2021/06/06 12:19:43;;;;;;;0.40;0.20;;;16.00;99.90;;;;;;5114883;27;20377;-79
2021/06/06 12:22:29;;;;;;;0.40;0.20;;;16.10;99.90;;;;;;5115539;27;20473;-78
2021/06/06 12:25:07;;;;;;;0.40;0.30;;;16.10;99.90;;;;;;5114367;27;20452;-78
2021/06/06 12:27:39;;;;;;;0.40;0.20;;;16.10;99.90;;;;;;5114824;27;20386;-78
2021/06/06 12:30:36;;;;;;;0.40;0.20;;;16.20;99.90;;;;;;5115460;27;20374;-78
2021/06/06 12:33:28;;;;;;;0.40;0.20;;;16.10;99.90;;;;;;5112723;27;20433;-77
2021/06/06 12:35:59;;;;;;;0.40;0.20;;;16.10;99.90;;;;;;5115564;27;20421;-79
2021/06/06 12:38:26;;;;;;;0.40;0.20;;;16.00;99.90;;;;;;5116387;27;20379;-81
2021/06/06 12:40:52;;;;;;;0.40;0.20;;;15.90;99.90;;;;;;5116551;27;20486;-80
2021/06/06 12:43:24;;;;;;;0.40;0.20;;;16.10;99.90;;;;;;5093709;27;20447;-82
2021/06/06 12:45:51;;;;;;;0.40;0.20;;;16.10;99.90;;;;;;5114938;27;20407;-81
2021/06/06 12:48:28;;;;;;;0.40;0.20;;;16.10;99.90;;;;;;5115469;27;20378;-81
2021/06/06 12:50:56;;;;;;;0.40;0.20;;;16.10;99.90;;;;;;5098345;28;20383;-81
2021/06/06 12:53:33;;;;;;;0.40;0.20;;;15.90;99.90;;;;;;5095012;28;20475;-81
2021/06/06 12:56:31;;;;;;;0.40;0.20;;;16.10;99.90;;;;;;5093027;28;21018;-80
2021/06/06 12:59:19;;;;;;;0.40;0.20;;;16.10;99.90;;;;;;5093720;28;20496;-81
2021/06/06 13:01:46;;;;;;;0.40;0.20;;;15.80;99.90;;;;;;5092715;28;20419;-80
2021/06/06 13:04:26;;;;;;;0.40;0.30;;;15.80;99.90;;;;;;5091360;28;20972;-80
2021/06/06 13:06:53;;;;;;;0.40;0.30;;;15.80;99.90;;;;;;5096003;28;20483;-79
2021/06/06 13:09:32;;;;;;;0.40;0.20;;;15.90;99.90;;;;;;5094288;28;20851;-80
2021/06/06 13:12:16;;;;;;;0.40;0.20;;;15.80;99.90;;;;;;5097154;28;20376;-83
2021/06/06 13:14:58;;;;;;;0.40;0.20;;;15.80;99.90;;;;;;5097188;28;20377;-81